Upstream stations:
Downstream station:
SHEF ID: CDNT2 Canadian Rv nr Canadian, TX
STATION TYPE:
Regulating: Stage = 8.00, Flow = 5231
STAGE RIV-FLOW BAT-LOAD
ft cfs volt
Ccp-Rev Ccp-Rev Ccp-Rev
(US/Central)
06/08 00:00 1.05 24 12.41
06/08 01:00 1.04 23 12.41
06/08 02:00 ---- ---- ----
06/08 03:00 ---- ---- ----
06/08 04:00 1.12 30 ----
06/08 05:00 1.12 30 12.33
06/08 06:00 1.09 27 12.33
06/08 07:00 1.20 39 12.33
06/08 08:00 1.19 38 12.25
06/08 09:00 1.26 45 12.25
06/08 10:00 1.25 44 12.25
06/08 11:00 1.25 44 12.33
06/08 12:00 1.26 45 12.41
06/08 13:00 1.25 44 12.65
06/08 14:00 1.29 49 12.81
06/08 15:00 1.34 55 12.73
06/08 16:00 1.41 63 12.73
06/08 17:00 1.46 70 12.81
06/08 18:00 1.45 68 12.73
06/08 19:00 1.40 62 12.57
06/08 20:00 1.34 55 12.49
06/08 21:00 1.33 53 12.41
06/08 22:00 1.30 50 12.41
06/08 23:00 ---- ---- ----